createdAt,value
2022-08-22T00:00:11.365Z,95714.44
2022-08-22T00:02:47.662Z,95821.41
2022-08-22T00:02:53.053Z,95828.19
2022-08-22T00:02:56.262Z,95808.22
2022-08-22T00:03:09.242Z,95809.84
2022-08-22T00:03:15.360Z,95787.94
2022-08-22T00:05:49.008Z,95797.19
2022-08-22T00:08:22.863Z,95802.16
2022-08-22T00:10:57.863Z,95807.19
2022-08-22T00:13:36.417Z,95726.13
2022-08-22T00:16:13.887Z,95793.88
2022-08-22T00:18:49.664Z,95803.09
2022-08-22T00:21:23.104Z,95808.91
2022-08-22T00:23:55.693Z,95796.38
2022-08-22T00:26:35.008Z,95699.47
2022-08-22T00:29:08.117Z,95791.13
2022-08-22T00:31:40.875Z,95804.81
2022-08-22T00:34:14.819Z,95721.53
2022-08-22T00:36:48.899Z,95792.88
2022-08-22T00:39:20.124Z,95731.53
2022-08-22T00:42:13.060Z,95793.50
2022-08-22T00:45:21.919Z,95813.66
2022-08-22T00:47:58.635Z,95799.09
2022-08-22T00:50:43.311Z,95808.03
2022-08-22T00:53:31.969Z,95818.03
2022-08-22T00:56:20.117Z,95756.81
2022-08-22T00:59:23.342Z,95777.94
2022-08-22T01:02:04.801Z,95809.22
2022-08-22T01:04:52.793Z,95724.34
2022-08-22T01:07:38.059Z,95787.34
2022-08-22T01:10:20.047Z,95804.56
2022-08-22T01:13:04.721Z,95822.16
2022-08-22T01:15:37.516Z,95804.22
2022-08-22T01:18:29.387Z,95806.41
2022-08-22T01:21:34.631Z,95807.16
2022-08-22T01:24:38.722Z,95801.06
2022-08-22T01:28:01.327Z,95800.44
2022-08-22T01:30:55.998Z,95771.91
2022-08-22T01:33:57.713Z,95793.56
2022-08-22T01:37:01.638Z,95800.41
2022-08-22T01:40:10.458Z,95760.19
2022-08-22T01:42:54.076Z,95793.31
2022-08-22T01:45:51.700Z,95798.84
2022-08-22T01:48:23.303Z,95796.38
2022-08-22T01:50:58.128Z,95785.53
2022-08-22T01:53:40.629Z,95778.94
2022-08-22T01:56:13.767Z,95796.91
2022-08-22T01:58:46.714Z,95801.59
2022-08-22T02:01:27.386Z,95784.28
2022-08-22T02:04:02.866Z,95729.16
2022-08-22T02:06:46.447Z,95791.63
2022-08-22T02:09:28.049Z,95790.00
2022-08-22T02:11:58.217Z,95790.88
2022-08-22T02:14:41.630Z,95759.94
2022-08-22T02:17:18.603Z,95789.56
2022-08-22T02:19:56.162Z,95804.88
2022-08-22T02:22:35.424Z,95801.25
2022-08-22T02:25:09.790Z,95813.72
2022-08-22T02:27:47.793Z,95810.22
2022-08-22T02:30:19.277Z,95814.63
2022-08-22T02:33:04.351Z,95810.22
2022-08-22T02:35:38.462Z,95802.25
2022-08-22T02:38:24.102Z,95810.22
2022-08-22T02:41:01.965Z,95799.81
2022-08-22T02:43:40.903Z,95814.63
2022-08-22T02:46:19.126Z,95795.16
2022-08-22T02:49:03.563Z,95823.44
2022-08-22T02:51:37.175Z,95808.28
2022-08-22T02:54:18.645Z,95706.41
2022-08-22T02:56:53.368Z,95791.28
2022-08-22T02:59:33.287Z,95797.13
2022-08-22T03:02:28.117Z,95804.72
2022-08-22T03:04:58.105Z,95813.63
2022-08-22T03:07:34.849Z,95810.78
2022-08-22T03:10:14.179Z,95813.75
2022-08-22T03:12:56.977Z,95806.41
2022-08-22T03:15:31.735Z,95784.78
2022-08-22T03:18:05.352Z,95810.31
2022-08-22T03:20:44.762Z,95817.19
2022-08-22T03:23:21.836Z,95814.66
2022-08-22T03:25:57.534Z,95820.38
2022-08-22T03:28:29.350Z,95776.50
2022-08-22T03:31:00.950Z,95806.78
2022-08-22T03:33:30.858Z,95818.63
2022-08-22T03:36:04.594Z,95806.78
2022-08-22T03:38:48.617Z,95831.00
2022-08-22T03:41:58.285Z,95827.84
2022-08-22T03:44:49.578Z,95820.22
2022-08-22T03:47:34.949Z,95827.84
2022-08-22T03:50:25.070Z,95832.00
2022-08-22T03:53:19.384Z,95836.69
2022-08-22T03:56:13.895Z,95826.00
2022-08-22T03:59:02.032Z,95835.53
2022-08-22T04:02:41.867Z,95844.34
2022-08-22T04:05:33.777Z,95801.84
2022-08-22T04:08:43.919Z,95839.66
2022-08-22T04:11:31.659Z,95838.25
2022-08-22T04:14:14.056Z,95832.59
2022-08-22T04:17:04.437Z,95827.72
2022-08-22T04:19:49.371Z,95838.09
2022-08-22T04:22:50.393Z,95835.25
2022-08-22T04:25:23.766Z,95816.94
2022-08-22T04:27:59.027Z,95835.53
2022-08-22T04:30:34.614Z,95814.75
2022-08-22T04:33:09.079Z,95799.25
2022-08-22T04:35:42.781Z,95841.59
2022-08-22T04:38:15.298Z,95750.19
2022-08-22T04:40:47.655Z,95819.72
2022-08-22T04:43:21.035Z,95835.53
2022-08-22T04:45:55.318Z,95839.25
2022-08-22T04:48:29.259Z,95819.97
2022-08-22T04:51:04.038Z,95848.56
2022-08-22T04:53:49.286Z,95845.91
2022-08-22T04:56:25.906Z,95854.47
2022-08-22T04:58:59.178Z,95853.19
2022-08-22T05:01:47.230Z,95856.31
2022-08-22T05:04:19.504Z,95848.56
2022-08-22T05:06:51.786Z,95847.38
2022-08-22T05:09:25.543Z,95761.59
2022-08-22T05:12:00.220Z,95846.72
2022-08-22T05:14:33.130Z,95807.41
2022-08-22T05:17:04.458Z,95747.28
2022-08-22T05:19:37.312Z,95857.84
2022-08-22T05:22:15.115Z,95793.56
2022-08-22T05:24:47.687Z,95821.56
2022-08-22T05:27:20.798Z,95863.88
2022-08-22T05:29:51.635Z,95867.84
2022-08-22T05:32:26.308Z,95681.03
2022-08-22T05:34:59.223Z,95865.91
2022-08-22T05:37:34.961Z,95864.84
2022-08-22T05:40:03.558Z,95864.09
2022-08-22T05:42:34.699Z,95811.66
2022-08-22T05:45:11.663Z,95876.03
2022-08-22T05:47:46.341Z,95875.00
2022-08-22T05:50:19.128Z,95874.88
2022-08-22T05:53:00.706Z,95875.72
2022-08-22T05:55:33.053Z,95875.41
2022-08-22T05:58:17.452Z,95849.13
2022-08-22T06:00:49.882Z,95880.66
2022-08-22T06:03:26.097Z,95880.19
2022-08-22T06:05:57.517Z,95873.19
2022-08-22T06:08:29.575Z,95882.00
2022-08-22T06:11:02.421Z,95877.31
2022-08-22T06:13:35.732Z,95862.31
2022-08-22T06:16:09.500Z,95862.16
2022-08-22T06:18:41.694Z,95879.09
2022-08-22T06:21:12.894Z,95783.63
2022-08-22T06:23:47.425Z,95807.31
2022-08-22T06:26:20.739Z,95878.50
2022-08-22T06:28:59.178Z,95869.56
2022-08-22T06:31:35.266Z,95884.75
2022-08-22T06:34:10.375Z,95891.03
2022-08-22T06:36:42.056Z,95858.03
2022-08-22T06:39:19.486Z,95871.94
2022-08-22T06:41:53.743Z,95855.63
2022-08-22T06:44:24.602Z,95876.41
2022-08-22T06:46:56.591Z,95889.41
2022-08-22T06:49:27.544Z,95865.75
2022-08-22T06:52:00.929Z,95895.09
2022-08-22T06:54:34.590Z,95887.38
2022-08-22T06:57:04.578Z,95889.34
2022-08-22T06:59:38.284Z,95803.72
2022-08-22T07:02:17.518Z,95890.63
2022-08-22T07:04:49.668Z,95889.63
2022-08-22T07:07:19.619Z,95890.63
2022-08-22T07:09:55.395Z,95851.75
2022-08-22T07:12:27.871Z,95898.31
2022-08-22T07:15:19.588Z,95899.63
2022-08-22T07:17:52.790Z,95894.75
2022-08-22T07:20:28.009Z,95869.78
2022-08-22T07:23:01.630Z,95891.19
2022-08-22T07:25:31.657Z,95889.59
2022-08-22T07:28:20.071Z,95879.75
2022-08-22T07:30:56.754Z,95903.22
2022-08-22T07:33:42.214Z,95894.97
2022-08-22T07:36:23.278Z,95850.03
2022-08-22T07:39:04.378Z,95880.50
2022-08-22T07:41:41.037Z,95887.75
2022-08-22T07:44:17.760Z,95841.16
2022-08-22T07:46:56.835Z,95889.53
2022-08-22T07:49:30.061Z,95877.97
2022-08-22T07:52:02.339Z,95886.31
2022-08-22T07:54:37.583Z,95877.63
2022-08-22T07:57:09.320Z,95876.59
2022-08-22T07:59:39.414Z,95833.59
2022-08-22T08:02:11.833Z,95886.63
2022-08-22T08:04:42.366Z,95897.19
2022-08-22T08:07:15.275Z,95886.66
2022-08-22T08:09:47.402Z,95886.94
2022-08-22T08:12:16.774Z,95875.84
2022-08-22T08:14:46.873Z,95887.13
2022-08-22T08:17:20.112Z,95886.44
2022-08-22T08:19:50.591Z,95844.66
2022-08-22T08:22:24.583Z,95880.47
2022-08-22T08:24:55.439Z,95887.63
2022-08-22T08:27:44.675Z,95866.81
2022-08-22T08:30:21.536Z,95882.28
2022-08-22T08:32:57.491Z,95849.34
2022-08-22T08:36:02.326Z,95872.41
2022-08-22T08:38:40.200Z,95882.34
2022-08-22T08:41:30.558Z,95863.56
2022-08-22T08:44:06.765Z,95869.78
2022-08-22T08:46:58.354Z,95877.06
2022-08-22T08:49:39.631Z,95870.25
2022-08-22T08:52:25.303Z,95774.84
2022-08-22T08:55:02.671Z,95872.19
2022-08-22T08:58:06.672Z,95877.25
2022-08-22T09:00:51.256Z,95875.63
2022-08-22T09:03:43.636Z,95874.59
2022-08-22T09:06:35.586Z,95811.78
2022-08-22T09:09:17.046Z,95816.56
2022-08-22T09:12:23.787Z,95861.19
2022-08-22T09:15:14.299Z,95870.50
2022-08-22T09:18:13.401Z,95856.59
2022-08-22T09:21:30.456Z,95866.78
2022-08-22T09:24:25.273Z,95869.22
2022-08-22T09:29:54.724Z,95861.09
2022-08-22T09:32:46.933Z,95848.41
2022-08-22T09:35:25.834Z,95869.06
2022-08-22T09:38:30.014Z,95829.47
2022-08-22T09:41:08.451Z,95847.34
2022-08-22T09:43:44.707Z,95858.41
2022-08-22T09:46:23.553Z,95875.59
2022-08-22T09:49:10.927Z,95846.19
2022-08-22T09:51:46.069Z,95844.66
2022-08-22T09:54:31.614Z,95873.09
2022-08-22T09:57:17.549Z,95831.16
2022-08-22T10:00:00.703Z,95790.47
2022-08-22T10:02:43.640Z,95867.34
2022-08-22T10:05:35.167Z,95862.06
2022-08-22T10:08:28.366Z,95838.16
2022-08-22T10:11:08.547Z,95847.59
2022-08-22T10:13:47.899Z,95837.81
2022-08-22T10:16:37.025Z,95868.34
2022-08-22T10:19:16.699Z,95779.78
2022-08-22T10:22:14.929Z,95863.03
2022-08-22T10:24:48.986Z,95871.84
2022-08-22T10:27:23.928Z,95765.81
2022-08-22T10:30:08.140Z,95865.06
2022-08-22T10:32:43.901Z,95768.81
2022-08-22T10:35:23.107Z,95796.19
2022-08-22T10:38:00.194Z,95732.81
2022-08-22T10:40:33.894Z,95828.50
2022-08-22T10:43:11.761Z,95831.31
2022-08-22T10:45:43.282Z,95837.06
2022-08-22T10:48:46.305Z,95866.03
2022-08-22T10:51:37.552Z,95846.84
2022-08-22T10:54:21.255Z,95837.00
2022-08-22T10:56:57.483Z,95858.34
2022-08-22T10:59:39.313Z,95859.50
2022-08-22T11:02:42.182Z,95861.75
2022-08-22T11:05:33.607Z,95864.97
2022-08-22T11:08:25.976Z,95855.34
2022-08-22T11:11:19.120Z,95841.69
2022-08-22T11:14:02.587Z,95784.84
2022-08-22T11:16:55.276Z,95871.88
2022-08-22T11:19:48.425Z,95866.50
2022-08-22T11:22:40.001Z,95841.28
2022-08-22T11:25:26.927Z,95779.81
2022-08-22T11:28:25.598Z,95854.50
2022-08-22T11:31:07.054Z,95842.94
2022-08-22T11:33:47.126Z,95840.59
2022-08-22T11:36:31.203Z,95850.63
2022-08-22T11:39:18.285Z,95835.19
2022-08-22T11:41:58.494Z,95840.19
2022-08-22T11:44:32.079Z,95817.06
2022-08-22T11:47:08.689Z,95843.06
2022-08-22T11:49:49.429Z,95849.28
2022-08-22T11:52:29.658Z,95771.03
2022-08-22T11:55:19.469Z,95847.69
2022-08-22T11:57:53.779Z,95836.41
2022-08-22T12:00:32.730Z,95797.44
2022-08-22T12:03:44.129Z,95850.00
2022-08-22T12:06:32.576Z,95815.09
2022-08-22T12:09:20.353Z,95844.16
2022-08-22T12:12:08.731Z,95836.34
2022-08-22T12:14:46.058Z,95837.00
2022-08-22T12:17:55.027Z,95806.22
2022-08-22T12:20:45.364Z,95840.53
2022-08-22T12:23:49.096Z,95835.84
2022-08-22T12:26:26.965Z,95805.00
2022-08-22T12:29:15.732Z,95800.09
2022-08-22T12:32:27.708Z,95765.75
2022-08-22T12:35:14.439Z,95743.94
2022-08-22T12:37:53.093Z,95830.31
2022-08-22T12:40:33.293Z,95752.53
2022-08-22T12:43:32.419Z,95786.50
2022-08-22T12:46:14.651Z,95762.03
2022-08-22T12:49:00.333Z,95706.88
2022-08-22T12:51:43.539Z,95704.81
2022-08-22T12:54:46.300Z,95811.88
2022-08-22T12:57:25.818Z,95813.63
2022-08-22T12:59:58.214Z,95713.41
2022-08-22T13:02:29.831Z,95831.69
2022-08-22T13:05:03.272Z,95816.59
2022-08-22T13:07:34.556Z,95808.06
2022-08-22T13:10:09.834Z,95704.38
2022-08-22T13:12:44.969Z,95822.53
2022-08-22T13:15:31.212Z,95818.59
2022-08-22T13:18:25.313Z,95807.53
2022-08-22T13:20:54.850Z,95790.03
2022-08-22T13:23:29.402Z,95810.63
2022-08-22T13:26:07.645Z,95804.97
2022-08-22T13:28:42.805Z,95794.41
2022-08-22T13:31:21.063Z,95703.31
2022-08-22T13:33:50.100Z,95792.44
2022-08-22T13:36:22.987Z,95802.97
2022-08-22T13:39:04.093Z,95803.41
2022-08-22T13:41:43.055Z,95715.97
2022-08-22T13:44:18.103Z,95796.22
2022-08-22T13:47:13.058Z,95789.09
2022-08-22T13:49:38.874Z,95765.31
2022-08-22T13:52:29.030Z,95778.22
2022-08-22T13:55:03.425Z,95792.66
2022-08-22T13:57:43.076Z,95752.41
2022-08-22T14:00:58.104Z,95789.22
2022-08-22T14:03:32.853Z,95788.91
2022-08-22T14:06:26.579Z,95778.38
2022-08-22T14:08:56.943Z,95776.56
2022-08-22T14:11:32.156Z,95776.19
2022-08-22T14:14:03.161Z,95756.56
2022-08-22T14:16:39.959Z,95752.31
2022-08-22T14:19:11.043Z,95751.06
2022-08-22T14:21:43.319Z,95723.78
2022-08-22T14:24:19.946Z,95782.72
2022-08-22T14:26:57.956Z,95782.38
2022-08-22T14:29:29.266Z,95769.88
2022-08-22T14:32:06.127Z,95708.00
2022-08-22T14:34:42.081Z,95707.03
2022-08-22T14:37:20.324Z,95771.81
2022-08-22T14:39:55.150Z,95740.44
2022-08-22T14:42:25.534Z,95711.81
2022-08-22T14:45:07.036Z,95784.28
2022-08-22T14:47:55.344Z,95684.41
2022-08-22T14:50:45.757Z,95781.72
2022-08-22T14:53:26.059Z,95750.28
2022-08-22T14:56:03.818Z,95725.44
2022-08-22T14:58:37.415Z,95763.34
2022-08-22T15:01:11.389Z,95776.31
2022-08-22T15:03:41.283Z,95763.09
2022-08-22T15:06:13.263Z,95780.84
2022-08-22T15:08:50.536Z,95766.94
2022-08-22T15:11:27.296Z,95763.28
2022-08-22T15:14:05.893Z,95699.28
2022-08-22T15:16:37.812Z,95763.88
2022-08-22T15:19:23.966Z,95757.03
2022-08-22T15:21:52.863Z,95716.72
2022-08-22T15:24:22.525Z,95750.69
2022-08-22T15:26:55.341Z,95774.78
2022-08-22T15:29:25.602Z,95777.88
2022-08-22T15:31:55.713Z,95774.81
2022-08-22T15:34:32.662Z,95783.06
2022-08-22T15:37:11.985Z,95779.13
2022-08-22T15:40:05.834Z,95776.50
2022-08-22T15:42:43.427Z,95779.97
2022-08-22T15:45:22.337Z,95778.44
2022-08-22T15:47:53.055Z,95779.19
2022-08-22T15:50:35.389Z,95790.00
2022-08-22T15:53:23.894Z,95786.63
2022-08-22T15:56:26.813Z,95789.53
2022-08-22T15:59:26.994Z,95789.59
2022-08-22T16:02:04.249Z,95788.16
2022-08-22T16:04:36.745Z,95785.81
2022-08-22T16:07:21.623Z,95797.16
2022-08-22T16:09:53.007Z,95792.53
2022-08-22T16:12:31.974Z,95787.38
2022-08-22T16:15:01.273Z,95795.63
2022-08-22T16:17:53.470Z,95803.44
2022-08-22T16:20:56.866Z,95806.78
2022-08-22T16:23:24.692Z,95814.59
2022-08-22T16:26:10.535Z,95813.66
2022-08-22T16:28:59.053Z,95806.56
2022-08-22T16:31:31.194Z,95810.97
2022-08-22T16:34:24.036Z,95812.25
2022-08-22T16:37:42.844Z,95811.75
2022-08-22T16:40:16.548Z,95810.66
2022-08-22T16:42:47.370Z,95807.47
2022-08-22T16:45:22.026Z,95809.84
2022-08-22T16:47:56.788Z,95799.13
2022-08-22T16:50:40.887Z,95814.44
2022-08-22T16:53:13.738Z,95815.16
2022-08-22T16:56:19.021Z,95817.34
2022-08-22T16:59:19.725Z,95819.56
2022-08-22T17:02:11.391Z,95826.38
2022-08-22T17:04:50.677Z,95818.53
2022-08-22T17:07:29.728Z,95824.59
2022-08-22T17:10:34.416Z,95825.59
2022-08-22T17:13:27.495Z,95828.19
2022-08-22T17:16:06.998Z,95825.75
2022-08-22T17:18:57.191Z,95834.84
2022-08-22T17:21:29.783Z,95832.78
2022-08-22T17:24:07.102Z,95840.00
2022-08-22T17:26:54.271Z,95816.19
2022-08-22T17:29:32.019Z,95827.38
2022-08-22T17:32:11.132Z,95832.25
2022-08-22T17:34:43.008Z,95828.63
2022-08-22T17:37:18.065Z,95833.81
2022-08-22T17:40:24.050Z,95841.00
2022-08-22T17:43:10.494Z,95841.53
2022-08-22T17:45:55.296Z,95839.91
2022-08-22T17:48:27.359Z,95844.75
2022-08-22T17:51:02.580Z,95844.59
2022-08-22T17:53:37.366Z,95841.13
2022-08-22T17:56:15.434Z,95844.41
2022-08-22T17:58:46.929Z,95838.72
2022-08-22T18:01:33.542Z,95844.94
2022-08-22T18:04:03.764Z,95847.09
2022-08-22T18:06:35.530Z,95828.22
2022-08-22T18:09:16.622Z,95842.63
2022-08-22T18:11:50.907Z,95835.59
2022-08-22T18:14:28.596Z,95840.03
2022-08-22T18:16:59.091Z,95842.84
2022-08-22T18:19:41.036Z,95849.34
2022-08-22T18:22:14.675Z,95840.09
2022-08-22T18:24:50.886Z,95851.81
2022-08-22T18:27:30.080Z,95841.50
2022-08-22T18:30:08.285Z,95846.75
2022-08-22T18:32:41.601Z,95850.44
2022-08-22T18:35:17.921Z,95844.00
2022-08-22T18:37:56.071Z,95848.38
2022-08-22T18:40:31.651Z,95852.72
2022-08-22T18:43:13.729Z,95846.41
2022-08-22T18:46:04.082Z,95853.88
2022-08-22T18:48:54.307Z,95857.22
2022-08-22T18:51:29.797Z,95863.59
2022-08-22T18:54:20.484Z,95863.47
2022-08-22T18:56:54.086Z,95854.91
2022-08-22T18:59:42.277Z,95855.69
2022-08-22T19:02:34.626Z,95849.00
2022-08-22T19:05:34.170Z,95869.81
2022-08-22T19:08:22.293Z,95869.84
2022-08-22T19:10:56.200Z,95871.72
2022-08-22T19:13:47.578Z,95874.38
2022-08-22T19:16:44.396Z,95882.69
2022-08-22T19:19:17.584Z,95881.16
2022-08-22T19:22:29.179Z,95870.31
2022-08-22T19:25:19.729Z,95884.84
2022-08-22T19:28:23.320Z,95888.59
2022-08-22T19:30:53.270Z,95901.53
2022-08-22T19:33:34.804Z,95899.41
2022-08-22T19:36:09.620Z,95904.19
2022-08-22T19:38:57.398Z,95904.88
2022-08-22T19:41:56.967Z,95902.41
2022-08-22T19:44:38.657Z,95905.09
2022-08-22T19:47:16.677Z,95903.97
2022-08-22T19:49:49.311Z,95908.72
2022-08-22T19:52:28.440Z,95912.81
2022-08-22T19:55:08.988Z,95904.66
2022-08-22T19:57:42.905Z,95914.69
2022-08-22T20:00:13.470Z,95910.72
2022-08-22T20:02:57.332Z,95916.81
2022-08-22T20:05:39.105Z,95911.94
2022-08-22T20:08:25.468Z,95909.31
2022-08-22T20:11:03.834Z,95915.69
2022-08-22T20:13:33.962Z,95914.19
2022-08-22T20:16:13.410Z,95921.41
2022-08-22T20:19:15.055Z,95923.66
2022-08-22T20:21:55.097Z,95918.31
2022-08-22T20:24:29.887Z,95927.13
2022-08-22T20:27:13.758Z,95914.91
2022-08-22T20:29:49.128Z,95924.84
2022-08-22T20:32:20.434Z,95918.09
2022-08-22T20:34:51.674Z,95918.59
2022-08-22T20:37:45.454Z,95913.63
2022-08-22T20:40:53.266Z,95916.19
2022-08-22T20:43:25.702Z,95919.03
2022-08-22T20:46:05.941Z,95916.19
2022-08-22T20:48:39.231Z,95912.88
2022-08-22T20:51:09.876Z,95920.56
2022-08-22T20:53:38.926Z,95923.97
2022-08-22T20:56:09.506Z,95915.38
2022-08-22T20:58:39.771Z,95911.59
2022-08-22T21:01:12.147Z,95911.13
2022-08-22T21:03:44.193Z,95910.53
2022-08-22T21:06:14.405Z,95922.78
2022-08-22T21:08:44.770Z,95909.94
2022-08-22T21:11:39.759Z,95909.19
2022-08-22T21:14:19.599Z,95914.84
2022-08-22T21:16:48.677Z,95916.13
2022-08-22T21:19:21.170Z,95909.84
2022-08-22T21:21:48.896Z,95910.03
2022-08-22T21:24:18.033Z,95915.38
2022-08-22T21:26:53.983Z,95918.66
2022-08-22T21:29:23.506Z,95905.69
2022-08-22T21:31:59.166Z,95897.41
2022-08-22T21:34:36.220Z,95906.00
2022-08-22T21:37:17.746Z,95903.38
2022-08-22T21:39:50.479Z,95904.91
2022-08-22T21:42:24.874Z,95899.13
2022-08-22T21:44:57.445Z,95895.84
2022-08-22T21:47:36.807Z,95903.50
2022-08-22T21:50:18.571Z,95881.94
2022-08-22T21:53:03.308Z,95896.31
2022-08-22T21:55:34.998Z,95907.28
2022-08-22T21:58:10.052Z,95906.50
2022-08-22T22:00:49.333Z,95913.53
2022-08-22T22:03:19.421Z,95903.53
2022-08-22T22:05:47.425Z,95900.72
2022-08-22T22:08:15.187Z,95900.25
2022-08-22T22:10:46.311Z,95901.97
2022-08-22T22:13:14.543Z,95911.63
2022-08-22T22:15:44.901Z,95905.22
2022-08-22T22:18:13.303Z,95909.91
2022-08-22T22:20:41.825Z,95912.56
2022-08-22T22:23:10.278Z,95912.38
2022-08-22T22:25:42.234Z,95890.94
2022-08-22T22:28:14.564Z,95904.69
2022-08-22T22:30:43.939Z,95892.19
2022-08-22T22:33:12.046Z,95912.38
2022-08-22T22:35:41.233Z,95911.41
2022-08-22T22:38:09.841Z,95910.44
2022-08-22T22:40:37.473Z,95906.22
2022-08-22T22:43:05.269Z,95909.50
2022-08-22T22:45:34.284Z,95900.91
2022-08-22T22:48:01.965Z,95897.16
2022-08-22T22:50:29.712Z,95889.63
2022-08-22T22:52:57.384Z,95885.41
2022-08-22T22:55:25.576Z,95889.00
2022-08-22T22:57:59.224Z,95873.78
2022-08-22T23:00:30.521Z,95883.50
2022-08-22T23:03:01.342Z,95881.03
2022-08-22T23:05:29.662Z,95886.91
2022-08-22T23:07:57.707Z,95887.69
2022-08-22T23:10:25.561Z,95873.28
2022-08-22T23:12:53.193Z,95878.00
2022-08-22T23:15:23.342Z,95886.72
2022-08-22T23:17:51.015Z,95886.06
2022-08-22T23:20:20.253Z,95882.66
2022-08-22T23:22:48.249Z,95871.16
2022-08-22T23:25:16.332Z,95887.16
2022-08-22T23:27:44.822Z,95884.03
2022-08-22T23:30:20.025Z,95887.31
2022-08-22T23:32:47.688Z,95887.59
2022-08-22T23:35:15.345Z,95882.28
2022-08-22T23:37:44.338Z,95885.38
2022-08-22T23:40:12.875Z,95884.72
2022-08-22T23:42:40.986Z,95883.00
2022-08-22T23:45:09.160Z,95881.59
2022-08-22T23:47:36.809Z,95873.50
2022-08-22T23:50:06.850Z,95885.53
2022-08-22T23:52:34.966Z,95870.34
2022-08-22T23:55:03.981Z,95874.28
2022-08-22T23:57:31.821Z,95880.41
